Time;durP1;ratioP1;P1;durP2;ratioP2;P2;SDS_P1;SDS_P2;PMS_P1;PMS_P2;Temp;Humidity;BMP_temperature;BMP_pressure;BME280_temperature;BME280_humidity;BME280_pressure;Samples;Min_cycle;Max_cycle;Signal;HPM_P1;HPM_P2
2022/08/09 00:00:20;;;;;;;1.40;1.10;;;24.70;13.40;;;;;;5064433;28;20506;-79
2022/08/09 00:02:51;;;;;;;1.43;1.33;;;24.60;1.00;;;;;;5062674;28;20450;-79
2022/08/09 00:05:20;;;;;;;1.67;1.30;;;24.60;1.00;;;;;;5060991;28;20946;-80
2022/08/09 00:08:09;;;;;;;1.23;1.00;;;24.60;9.80;;;;;;5059349;28;20922;-79
2022/08/09 00:11:00;;;;;;;1.37;1.10;;;24.50;1.00;;;;;;5057436;28;20528;-80
2022/08/09 00:13:49;;;;;;;1.20;1.10;;;24.50;1.00;;;;;;5061390;28;20483;-80
2022/08/09 00:16:17;;;;;;;1.40;1.20;;;24.50;1.00;;;;;;5062512;28;20443;-79
2022/08/09 00:18:53;;;;;;;1.40;1.30;;;24.50;1.00;;;;;;5092170;28;20462;-79
2022/08/09 00:21:21;;;;;;;2.70;1.20;;;24.40;1.00;;;;;;5063404;28;20474;-81
2022/08/09 00:23:49;;;;;;;1.67;1.57;;;24.40;1.00;;;;;;5059342;28;20469;-80
2022/08/09 00:26:27;;;;;;;1.33;1.07;;;24.30;1.00;;;;;;5065990;28;20557;-80
2022/08/09 00:29:01;;;;;;;1.27;1.17;;;24.30;1.00;;;;;;5064062;28;20461;-81
2022/08/09 00:31:30;;;;;;;1.10;1.10;;;24.30;1.00;;;;;;5063680;28;20557;-80
2022/08/09 00:34:18;;;;;;;1.20;1.10;;;24.30;1.00;;;;;;5058583;28;20558;-80
2022/08/09 00:36:47;;;;;;;1.27;1.20;;;24.20;1.00;;;;;;5061378;28;20520;-80
2022/08/09 00:39:16;;;;;;;1.40;1.30;;;24.10;1.00;;;;;;5062796;28;20954;-80
2022/08/09 00:42:06;;;;;;;1.30;1.20;;;24.10;1.00;;;;;;5060871;28;20474;-80
2022/08/09 00:44:55;;;;;;;1.30;1.20;;;24.10;1.00;;;;;;5062132;28;20490;-80
2022/08/09 00:47:24;;;;;;;2.13;1.40;;;24.10;1.00;;;;;;5060016;28;20483;-79
2022/08/09 00:49:53;;;;;;;1.43;1.30;;;24.10;1.00;;;;;;5064317;28;20455;-79
2022/08/09 00:52:25;;;;;;;3.57;1.30;;;24.00;1.00;;;;;;5063408;28;20462;-79
2022/08/09 00:54:58;;;;;;;1.20;1.10;;;24.00;1.00;;;;;;5063077;28;21056;-79
2022/08/09 00:57:29;;;;;;;2.93;1.70;;;24.00;1.00;;;;;;5063934;28;20496;-79
2022/08/09 01:00:05;;;;;;;1.57;1.20;;;23.90;1.00;;;;;;5061200;28;20446;-80
2022/08/09 01:02:54;;;;;;;1.40;1.30;;;23.90;1.00;;;;;;5058709;28;20447;-78
2022/08/09 01:05:30;;;;;;;1.43;1.27;;;23.90;1.00;;;;;;5091680;28;20859;-79
2022/08/09 01:08:29;;;;;;;1.17;1.07;;;23.80;1.00;;;;;;5059450;28;21142;-79
2022/08/09 01:11:10;;;;;;;1.50;1.40;;;23.90;1.00;;;;;;5058692;28;21053;-80
2022/08/09 01:13:50;;;;;;;1.50;1.07;;;23.80;1.00;;;;;;5065517;28;20458;-81
2022/08/09 01:16:32;;;;;;;3.00;1.23;;;23.80;1.00;;;;;;5057935;28;20444;-81
2022/08/09 01:19:14;;;;;;;2.53;1.20;;;23.70;1.00;;;;;;5062979;28;20528;-80
2022/08/09 01:22:13;;;;;;;2.00;1.20;;;23.70;1.00;;;;;;5065233;28;20564;-81
2022/08/09 01:24:54;;;;;;;1.00;1.00;;;23.60;1.00;;;;;;5067233;28;21113;-81
2022/08/09 01:27:27;;;;;;;1.83;1.10;;;23.60;1.00;;;;;;5063787;28;21432;-80
2022/08/09 01:30:00;;;;;;;1.17;1.07;;;23.60;1.00;;;;;;5099866;28;20824;-80
2022/08/09 01:32:32;;;;;;;1.30;1.10;;;23.60;1.00;;;;;;5067097;28;20967;-80
2022/08/09 01:35:04;;;;;;;1.47;1.00;;;23.60;1.00;;;;;;5065655;28;21089;-81
2022/08/09 01:37:56;;;;;;;1.83;1.07;;;23.60;1.00;;;;;;5065669;28;20483;-80
2022/08/09 01:40:43;;;;;;;2.33;1.20;;;23.60;1.00;;;;;;5063858;28;20470;-81
2022/08/09 01:43:22;;;;;;;1.70;1.10;;;23.60;1.00;;;;;;5065571;28;20458;-81
2022/08/09 01:45:53;;;;;;;3.40;1.07;;;23.60;1.00;;;;;;5067089;28;20557;-81
2022/08/09 01:48:27;;;;;;;1.37;1.20;;;23.50;1.00;;;;;;5065819;28;20462;-81
2022/08/09 01:50:59;;;;;;;1.30;1.20;;;23.40;1.00;;;;;;5063001;28;20469;-81
2022/08/09 01:53:32;;;;;;;2.73;1.20;;;23.40;1.00;;;;;;5066571;28;20446;-79
2022/08/09 01:56:11;;;;;;;1.03;0.93;;;23.40;1.00;;;;;;5063767;28;20508;-80
2022/08/09 01:58:43;;;;;;;1.20;1.10;;;23.30;1.00;;;;;;5067352;28;20458;-79
2022/08/09 02:01:18;;;;;;;1.13;0.97;;;23.30;1.00;;;;;;5064567;28;20498;-80
2022/08/09 02:03:59;;;;;;;1.10;1.10;;;23.30;1.00;;;;;;5067507;28;20450;-81
2022/08/09 02:09:26;;;;;;;1.10;1.00;;;23.20;1.00;;;;;;5059038;28;20461;-81
2022/08/09 02:12:12;;;;;;;1.53;1.43;;;23.20;1.00;;;;;;5065154;28;20481;-80
2022/08/09 02:14:53;;;;;;;1.33;1.07;;;23.10;1.00;;;;;;5063267;28;20484;-81
2022/08/09 02:17:26;;;;;;;1.37;1.10;;;23.10;1.00;;;;;;5064495;28;20449;-80
2022/08/09 02:20:14;;;;;;;1.20;1.10;;;23.10;1.00;;;;;;5067252;28;20480;-80
2022/08/09 02:23:00;;;;;;;1.37;1.27;;;23.00;1.00;;;;;;5066033;28;20461;-80
2022/08/09 02:25:34;;;;;;;1.53;1.30;;;23.00;1.00;;;;;;5063554;28;20495;-80
2022/08/09 02:28:16;;;;;;;1.20;1.10;;;23.00;1.00;;;;;;5061305;28;20466;-80
2022/08/09 02:30:51;;;;;;;1.30;1.20;;;22.90;1.00;;;;;;5065459;28;20485;-81
2022/08/09 02:33:24;;;;;;;1.90;1.07;;;22.90;1.00;;;;;;5063865;28;20450;-81
2022/08/09 02:36:16;;;;;;;1.50;1.20;;;22.90;1.00;;;;;;5064347;28;20480;-80
2022/08/09 02:38:49;;;;;;;2.83;1.00;;;22.90;4.60;;;;;;5068296;28;21151;-81
2022/08/09 02:41:25;;;;;;;1.17;1.07;;;22.80;1.00;;;;;;5066297;28;20523;-81
2022/08/09 02:44:00;;;;;;;1.97;1.23;;;22.90;1.00;;;;;;5067734;28;20458;-81
2022/08/09 02:46:40;;;;;;;1.40;1.30;;;22.80;1.00;;;;;;5063458;28;20462;-81
2022/08/09 02:49:12;;;;;;;3.20;1.23;;;22.70;1.00;;;;;;5066225;28;20483;-81
2022/08/09 02:51:42;;;;;;;1.30;1.20;;;22.70;1.00;;;;;;5063285;28;20556;-80
2022/08/09 02:54:14;;;;;;;1.00;1.00;;;22.70;1.00;;;;;;5064036;28;20469;-79
2022/08/09 02:56:46;;;;;;;2.83;1.17;;;22.70;1.00;;;;;;5066896;28;20461;-79
2022/08/09 02:59:23;;;;;;;1.30;1.20;;;22.60;1.00;;;;;;5059041;28;20561;-78
2022/08/09 03:02:06;;;;;;;2.70;1.30;;;22.70;1.00;;;;;;5065397;28;20470;-79
2022/08/09 03:04:45;;;;;;;3.00;1.20;;;22.60;1.00;;;;;;5064886;28;20464;-79
2022/08/09 03:07:19;;;;;;;1.30;1.20;;;22.60;1.00;;;;;;5061329;28;20491;-79
2022/08/09 03:09:49;;;;;;;4.30;1.40;;;22.50;1.00;;;;;;5060425;28;20458;-79
2022/08/09 03:12:25;;;;;;;1.00;1.00;;;22.50;1.00;;;;;;5062847;28;20470;-80
2022/08/09 03:14:56;;;;;;;1.20;1.10;;;22.50;1.00;;;;;;5061598;28;20466;-79
2022/08/09 03:17:28;;;;;;;1.40;1.30;;;22.50;1.00;;;;;;5065041;28;20439;-79
2022/08/09 03:20:00;;;;;;;1.83;1.30;;;22.40;1.00;;;;;;5065136;28;20458;-78
2022/08/09 03:22:39;;;;;;;1.90;1.30;;;22.40;1.00;;;;;;5064586;28;20559;-78
2022/08/09 03:25:13;;;;;;;1.27;1.27;;;22.40;1.00;;;;;;5059835;28;20453;-78
2022/08/09 03:28:03;;;;;;;1.60;1.50;;;22.40;1.00;;;;;;5060337;28;20475;-79
2022/08/09 03:30:38;;;;;;;1.77;1.50;;;22.30;1.00;;;;;;5060418;28;20498;-78
2022/08/09 03:33:14;;;;;;;1.30;1.20;;;22.30;1.00;;;;;;5062289;28;20871;-80
2022/08/09 03:35:48;;;;;;;1.57;1.20;;;22.30;1.00;;;;;;5064087;28;20450;-79
2022/08/09 03:38:37;;;;;;;1.20;1.10;;;22.20;1.00;;;;;;5097501;27;20491;-79
2022/08/09 03:41:11;;;;;;;1.60;1.50;;;22.20;1.00;;;;;;5060580;28;20474;-80
2022/08/09 03:43:44;;;;;;;1.60;1.50;;;22.20;1.00;;;;;;5062433;28;20459;-79
2022/08/09 03:46:32;;;;;;;2.00;1.30;;;22.10;1.00;;;;;;5064466;28;20557;-79
2022/08/09 03:49:03;;;;;;;3.43;1.37;;;22.10;1.00;;;;;;5064228;28;20477;-79
2022/08/09 03:51:36;;;;;;;1.70;1.30;;;22.10;1.00;;;;;;5064870;28;20560;-79
2022/08/09 03:54:25;;;;;;;1.40;1.30;;;22.10;1.00;;;;;;5061887;28;21220;-78
2022/08/09 03:56:57;;;;;;;1.60;1.40;;;22.00;1.00;;;;;;5062305;28;20458;-79
2022/08/09 03:59:26;;;;;;;1.20;1.20;;;22.00;1.00;;;;;;5061974;28;20450;-80
2022/08/09 04:02:14;;;;;;;1.23;1.13;;;22.00;1.00;;;;;;5058476;28;20466;-81
2022/08/09 04:04:57;;;;;;;3.53;1.30;;;22.00;1.00;;;;;;5061753;28;20824;-79
2022/08/09 04:07:27;;;;;;;1.60;1.50;;;22.00;1.00;;;;;;5062649;28;20478;-80
2022/08/09 04:10:16;;;;;;;1.50;1.40;;;21.90;1.00;;;;;;5057245;28;20451;-80
2022/08/09 04:12:49;;;;;;;1.27;1.17;;;21.90;1.00;;;;;;5060822;28;20454;-80
2022/08/09 04:15:20;;;;;;;1.23;1.10;;;21.80;1.00;;;;;;5061429;28;20526;-79
2022/08/09 04:18:08;;;;;;;2.20;1.50;;;21.90;1.00;;;;;;5063154;28;20552;-79
2022/08/09 04:20:45;;;;;;;1.37;1.27;;;21.80;1.00;;;;;;5065045;28;20478;-79
2022/08/09 04:23:13;;;;;;;1.50;1.40;;;21.80;1.00;;;;;;5061127;28;20465;-79
2022/08/09 04:25:45;;;;;;;1.50;1.40;;;21.80;1.00;;;;;;5060208;28;20507;-79
2022/08/09 04:28:21;;;;;;;1.50;1.40;;;21.80;1.00;;;;;;5061103;28;20466;-80
2022/08/09 04:31:06;;;;;;;4.50;2.33;;;21.90;1.00;;;;;;5064034;28;20463;-80
2022/08/09 04:33:38;;;;;;;1.47;1.37;;;21.90;1.00;;;;;;5063291;28;20455;-80
2022/08/09 04:36:24;;;;;;;1.80;1.40;;;21.80;1.00;;;;;;5060638;28;20447;-81
2022/08/09 04:38:53;;;;;;;1.60;1.50;;;21.80;1.00;;;;;;5061561;28;20972;-80
2022/08/09 04:41:22;;;;;;;1.50;1.40;;;21.80;1.00;;;;;;5062306;28;20520;-80
2022/08/09 04:44:00;;;;;;;1.73;1.43;;;21.80;1.00;;;;;;5062113;28;20438;-81
2022/08/09 04:46:37;;;;;;;1.40;1.30;;;21.70;1.00;;;;;;5055734;28;20450;-81
2022/08/09 04:49:25;;;;;;;1.57;1.43;;;21.80;1.00;;;;;;5064441;28;20600;-82
2022/08/09 04:52:15;;;;;;;1.60;1.40;;;21.70;1.00;;;;;;5059829;28;20466;-80
2022/08/09 04:54:54;;;;;;;1.60;1.50;;;21.70;1.00;;;;;;5061292;28;20458;-81
2022/08/09 04:57:22;;;;;;;1.73;1.60;;;21.70;1.00;;;;;;5062993;28;20459;-80
2022/08/09 04:59:53;;;;;;;2.07;1.40;;;21.70;1.00;;;;;;5066173;28;20449;-82
2022/08/09 05:02:23;;;;;;;1.80;1.47;;;21.70;1.00;;;;;;5067831;28;20474;-81
2022/08/09 05:04:55;;;;;;;2.73;1.63;;;21.70;1.00;;;;;;5063390;28;20465;-81
2022/08/09 05:07:25;;;;;;;2.17;1.97;;;21.70;1.00;;;;;;5060176;28;20463;-82
2022/08/09 05:09:59;;;;;;;1.70;1.50;;;21.80;1.00;;;;;;5058648;28;20463;-81
2022/08/09 05:12:30;;;;;;;2.63;1.90;;;21.70;1.00;;;;;;5066322;28;20841;-81
2022/08/09 05:15:00;;;;;;;1.70;1.60;;;21.80;1.00;;;;;;5066595;28;20507;-81
2022/08/09 05:17:31;;;;;;;2.83;1.80;;;21.70;1.00;;;;;;5059217;28;20462;-81
2022/08/09 05:20:20;;;;;;;2.27;1.90;;;21.70;1.00;;;;;;5064515;28;20912;-81
2022/08/09 05:22:58;;;;;;;1.90;1.80;;;21.80;1.00;;;;;;5064742;28;20456;-81
2022/08/09 05:25:47;;;;;;;2.80;1.60;;;21.70;1.00;;;;;;5070559;28;20454;-81
2022/08/09 05:28:19;;;;;;;2.80;1.60;;;21.70;1.00;;;;;;5067998;28;21067;-81
2022/08/09 05:30:48;;;;;;;2.00;1.63;;;21.70;1.00;;;;;;5054715;28;20476;-80
2022/08/09 05:33:18;;;;;;;1.50;1.40;;;21.80;1.00;;;;;;5066569;28;20446;-83
2022/08/09 05:35:59;;;;;;;3.30;1.70;;;21.80;1.00;;;;;;5069165;28;20530;-80
2022/08/09 05:38:29;;;;;;;3.40;1.53;;;21.90;1.00;;;;;;5065629;28;20445;-81
2022/08/09 05:40:58;;;;;;;4.73;1.80;;;21.90;1.00;;;;;;5067047;28;20467;-78
2022/08/09 05:43:26;;;;;;;1.77;1.67;;;22.00;1.00;;;;;;5068395;28;20450;-79
2022/08/09 05:45:58;;;;;;;2.73;2.00;;;22.00;1.00;;;;;;5061288;28;20837;-79
2022/08/09 05:48:27;;;;;;;2.25;1.60;;;22.00;1.00;;;;;;5060780;28;20550;-78
2022/08/09 05:51:01;;;;;;;1.67;1.57;;;22.10;1.00;;;;;;5061008;28;20213;-81
2022/08/09 05:53:51;;;;;;;2.43;1.60;;;22.20;1.00;;;;;;5055271;28;20562;-81
2022/08/09 05:56:25;;;;;;;2.63;1.80;;;22.20;1.00;;;;;;5054724;28;20445;-82
2022/08/09 05:58:56;;;;;;;2.10;2.00;;;22.30;1.00;;;;;;5059355;28;20450;-81
2022/08/09 06:01:26;;;;;;;3.60;1.70;;;22.30;1.60;;;;;;5049875;28;21303;-81
2022/08/09 06:04:09;;;;;;;3.20;2.00;;;22.40;2.30;;;;;;5064644;28;20448;-81
2022/08/09 06:06:40;;;;;;;2.10;1.40;;;22.40;5.60;;;;;;5062874;28;20285;-82
2022/08/09 06:09:18;;;;;;;2.80;1.87;;;22.60;4.30;;;;;;5062333;28;20568;-82
2022/08/09 06:12:07;;;;;;;1.77;1.67;;;22.70;6.20;;;;;;5063710;28;20533;-81
2022/08/09 06:14:36;;;;;;;2.60;2.10;;;22.70;6.40;;;;;;5065538;28;20517;-81
2022/08/09 06:17:04;;;;;;;2.10;1.63;;;22.80;8.00;;;;;;5066437;28;20460;-82
2022/08/09 06:19:37;;;;;;;1.67;1.57;;;23.00;9.60;;;;;;5081789;28;20497;-82
2022/08/09 06:22:06;;;;;;;1.63;1.53;;;23.10;10.70;;;;;;5071547;28;21279;-82
2022/08/09 06:24:43;;;;;;;1.60;1.50;;;23.20;12.00;;;;;;5066813;28;20540;-81
2022/08/09 06:27:13;;;;;;;1.40;1.30;;;23.30;13.60;;;;;;5065074;28;20546;-80
2022/08/09 06:29:42;;;;;;;2.50;1.53;;;23.40;14.00;;;;;;5069785;28;20576;-82
2022/08/09 06:32:31;;;;;;;1.50;1.33;;;23.50;15.20;;;;;;5072383;28;20487;-82
2022/08/09 06:35:19;;;;;;;1.83;1.73;;;23.60;16.30;;;;;;5063432;28;20537;-82
2022/08/09 06:37:48;;;;;;;1.60;1.50;;;23.70;16.10;;;;;;5075687;28;20453;-81
2022/08/09 06:40:34;;;;;;;1.93;1.50;;;23.70;27.70;;;;;;5069477;28;20478;-82
2022/08/09 06:43:03;;;;;;;2.63;1.70;;;23.90;18.40;;;;;;5069111;28;20542;-81
2022/08/09 06:45:37;;;;;;;1.80;1.50;;;24.00;19.30;;;;;;5072171;28;20803;-81
2022/08/09 06:48:26;;;;;;;4.63;1.40;;;24.20;21.90;;;;;;5067393;28;20470;-82
2022/08/09 06:50:58;;;;;;;1.60;1.50;;;24.40;21.80;;;;;;5074888;28;20493;-81
2022/08/09 06:53:27;;;;;;;1.63;1.50;;;24.50;21.70;;;;;;5064057;28;20459;-82
2022/08/09 06:56:07;;;;;;;1.40;1.30;;;24.70;23.30;;;;;;5064088;28;20447;-82
2022/08/09 06:58:36;;;;;;;1.60;1.50;;;24.80;23.80;;;;;;5067914;28;20834;-82
2022/08/09 07:01:24;;;;;;;1.60;1.50;;;25.00;26.30;;;;;;5064351;28;20466;-82
2022/08/09 07:04:12;;;;;;;1.40;1.30;;;25.20;27.70;;;;;;5071085;28;20485;-81
2022/08/09 07:06:47;;;;;;;1.60;1.37;;;25.30;28.90;;;;;;5070838;28;20442;-82
2022/08/09 07:09:20;;;;;;;1.43;1.33;;;25.50;29.20;;;;;;5071388;28;21299;-81
2022/08/09 07:12:10;;;;;;;1.67;1.57;;;25.60;30.50;;;;;;5070617;28;20566;-82
2022/08/09 07:14:44;;;;;;;1.77;1.67;;;25.70;32.00;;;;;;5069885;28;20781;-82
2022/08/09 07:17:20;;;;;;;1.77;1.67;;;25.90;31.50;;;;;;5067598;28;20458;-82
2022/08/09 07:19:49;;;;;;;1.60;1.50;;;26.00;31.60;;;;;;5069278;28;20450;-83
2022/08/09 07:22:22;;;;;;;1.60;1.50;;;26.10;30.80;;;;;;5069799;28;20545;-82
2022/08/09 07:25:11;;;;;;;1.50;1.40;;;26.10;31.30;;;;;;5062734;28;20457;-82
2022/08/09 07:27:43;;;;;;;1.50;1.40;;;26.20;31.90;;;;;;5064939;28;20446;-82
2022/08/09 07:30:20;;;;;;;1.53;1.30;;;26.20;31.70;;;;;;5069958;28;20674;-82
2022/08/09 07:32:53;;;;;;;1.73;1.30;;;26.30;33.60;;;;;;5067885;28;20516;-82
2022/08/09 07:35:22;;;;;;;1.60;1.40;;;26.30;33.50;;;;;;5069354;28;20970;-83
2022/08/09 07:37:52;;;;;;;3.80;1.47;;;26.40;32.20;;;;;;5068482;28;20537;-82
2022/08/09 07:40:27;;;;;;;1.53;1.43;;;26.40;32.70;;;;;;5056395;28;20467;-82
2022/08/09 07:43:16;;;;;;;1.70;1.60;;;26.40;30.30;;;;;;5070158;28;20450;-82
2022/08/09 07:45:45;;;;;;;1.57;1.47;;;26.40;31.00;;;;;;5068745;28;20469;-82
2022/08/09 07:48:14;;;;;;;1.60;1.50;;;26.40;32.60;;;;;;5067732;28;20480;-82
2022/08/09 07:50:58;;;;;;;1.50;1.40;;;26.50;32.30;;;;;;5066310;28;20478;-82
2022/08/09 07:53:48;;;;;;;1.93;1.50;;;26.40;30.20;;;;;;5071725;28;20489;-82
2022/08/09 07:56:35;;;;;;;1.70;1.60;;;26.50;31.60;;;;;;5061281;28;20479;-82
2022/08/09 07:59:17;;;;;;;2.90;1.33;;;26.50;31.70;;;;;;5065649;28;20446;-82
2022/08/09 08:02:02;;;;;;;2.93;1.50;;;26.50;31.30;;;;;;5066164;28;20954;-81
2022/08/09 08:04:32;;;;;;;1.70;1.60;;;26.50;33.10;;;;;;5070787;28;20483;-82
2022/08/09 08:07:03;;;;;;;1.43;1.33;;;26.50;31.70;;;;;;5068502;28;20469;-81
2022/08/09 08:09:51;;;;;;;1.80;1.70;;;26.50;30.40;;;;;;5071439;28;20482;-82
2022/08/09 08:12:39;;;;;;;1.50;1.40;;;26.50;29.60;;;;;;5077611;28;21143;-81
2022/08/09 08:15:14;;;;;;;1.77;1.23;;;26.50;30.10;;;;;;5072864;28;20841;-82
2022/08/09 08:17:45;;;;;;;2.03;1.93;;;26.90;43.50;;;;;;5066721;28;20458;-82
2022/08/09 08:20:26;;;;;;;1.60;1.50;;;26.50;29.50;;;;;;5068216;28;20519;-82
2022/08/09 08:23:00;;;;;;;1.77;1.50;;;26.60;29.70;;;;;;5073129;28;20458;-80
2022/08/09 08:25:44;;;;;;;1.90;1.70;;;26.60;29.20;;;;;;5066460;28;20450;-82
2022/08/09 08:28:16;;;;;;;1.70;1.60;;;26.60;30.00;;;;;;5069294;28;21330;-81
2022/08/09 08:30:54;;;;;;;1.33;1.23;;;26.60;29.70;;;;;;5057094;28;20513;-82
2022/08/09 08:33:23;;;;;;;1.67;1.57;;;26.60;29.50;;;;;;5062662;28;20458;-82
2022/08/09 08:35:52;;;;;;;1.70;1.60;;;26.60;29.90;;;;;;5066583;28;20457;-82
2022/08/09 08:38:28;;;;;;;1.87;1.43;;;26.50;27.60;;;;;;5066547;28;20446;-82
2022/08/09 08:40:57;;;;;;;2.03;1.50;;;26.50;28.40;;;;;;5059575;28;20470;-82
2022/08/09 08:43:26;;;;;;;1.50;1.40;;;26.60;28.60;;;;;;5062800;28;20481;-82
2022/08/09 08:46:02;;;;;;;1.60;1.50;;;26.70;30.70;;;;;;5064177;28;20454;-82
2022/08/09 08:48:50;;;;;;;2.07;1.40;;;26.70;30.40;;;;;;5061635;28;20452;-82
2022/08/09 08:51:22;;;;;;;1.73;1.30;;;26.70;31.10;;;;;;5065116;28;21037;-82
2022/08/09 08:53:51;;;;;;;1.50;1.40;;;26.80;31.30;;;;;;5062630;28;20466;-82
2022/08/09 08:56:35;;;;;;;1.50;1.40;;;26.80;32.00;;;;;;5064459;28;20458;-82
2022/08/09 08:59:06;;;;;;;1.90;1.80;;;26.80;30.30;;;;;;5069355;28;20528;-81
2022/08/09 09:01:50;;;;;;;1.53;1.43;;;26.90;29.20;;;;;;5067845;28;20532;-81
2022/08/09 09:04:29;;;;;;;1.90;1.80;;;26.90;29.50;;;;;;5068030;28;20469;-81
2022/08/09 09:07:10;;;;;;;1.40;1.30;;;26.90;29.70;;;;;;5069075;28;21129;-82
2022/08/09 09:09:41;;;;;;;1.63;1.33;;;26.90;30.90;;;;;;5066544;28;20461;-82
2022/08/09 09:12:31;;;;;;;1.20;1.10;;;27.00;30.90;;;;;;5062529;28;20454;-82
2022/08/09 09:15:04;;;;;;;1.83;1.30;;;27.00;31.80;;;;;;5067861;28;20492;-82
2022/08/09 09:17:35;;;;;;;1.50;1.40;;;27.00;32.90;;;;;;5065249;28;20479;-82
2022/08/09 09:20:20;;;;;;;1.40;1.30;;;27.00;30.70;;;;;;5068056;28;20435;-82
2022/08/09 09:22:54;;;;;;;1.47;1.37;;;27.00;31.60;;;;;;5066341;28;20488;-82
2022/08/09 09:25:35;;;;;;;1.50;1.40;;;27.00;29.70;;;;;;5056647;28;20892;-82
2022/08/09 09:28:23;;;;;;;1.37;1.20;;;27.00;29.90;;;;;;5067449;28;20946;-81
2022/08/09 09:31:13;;;;;;;1.30;1.20;;;27.00;31.60;;;;;;5069205;28;20486;-82
2022/08/09 09:34:13;;;;;;;1.60;1.50;;;27.00;29.30;;;;;;5067274;28;20489;-82
2022/08/09 09:36:46;;;;;;;1.50;1.40;;;27.10;30.30;;;;;;5067314;28;20470;-81
2022/08/09 09:39:22;;;;;;;1.77;1.60;;;27.10;31.10;;;;;;5062094;28;20509;-81
2022/08/09 09:42:23;;;;;;;1.70;1.30;;;27.20;29.10;;;;;;5065927;28;20473;-82
2022/08/09 09:44:57;;;;;;;1.50;1.40;;;27.20;41.90;;;;;;5068225;28;20530;-82
2022/08/09 09:47:26;;;;;;;1.50;1.37;;;27.20;28.40;;;;;;5083536;28;20486;-82
2022/08/09 09:49:59;;;;;;;1.50;1.40;;;27.10;28.40;;;;;;5070383;28;20450;-83
2022/08/09 09:52:51;;;;;;;4.97;1.73;;;27.20;27.60;;;;;;5072287;28;20478;-82
2022/08/09 09:55:23;;;;;;;4.60;1.70;;;27.20;27.10;;;;;;5058560;28;20492;-82
2022/08/09 09:58:00;;;;;;;1.60;1.50;;;27.20;28.00;;;;;;5073962;28;20461;-81
2022/08/09 10:00:47;;;;;;;1.53;1.43;;;27.10;25.70;;;;;;5069825;28;20493;-81
2022/08/09 10:03:39;;;;;;;1.50;1.40;;;27.20;27.00;;;;;;5068867;28;20457;-82
2022/08/09 10:06:11;;;;;;;1.40;1.30;;;27.30;28.60;;;;;;5068021;28;20457;-82
2022/08/09 10:08:40;;;;;;;1.50;1.40;;;27.30;30.20;;;;;;5073462;28;21335;-82
2022/08/09 10:11:24;;;;;;;1.70;1.60;;;27.30;43.40;;;;;;5068875;28;20482;-83
2022/08/09 10:14:23;;;;;;;1.70;1.60;;;27.40;28.70;;;;;;5103880;27;21473;-81
2022/08/09 10:16:58;;;;;;;1.60;1.50;;;27.30;27.70;;;;;;5069311;28;20457;-80
2022/08/09 10:19:46;;;;;;;1.50;1.40;;;27.40;29.30;;;;;;5069407;28;20878;-82
2022/08/09 10:22:32;;;;;;;1.33;1.23;;;27.40;32.10;;;;;;5071516;28;20462;-82
2022/08/09 10:25:02;;;;;;;1.30;1.20;;;27.50;31.00;;;;;;5071452;28;21197;-81
2022/08/09 10:27:40;;;;;;;1.47;1.37;;;27.50;31.20;;;;;;5069858;28;20462;-82
2022/08/09 10:30:23;;;;;;;1.60;1.50;;;27.50;30.90;;;;;;5072039;28;20493;-82
2022/08/09 10:33:11;;;;;;;1.50;1.40;;;27.50;30.50;;;;;;5070257;28;20540;-81
2022/08/09 10:36:00;;;;;;;1.53;1.43;;;27.50;32.80;;;;;;5069289;28;20498;-82
2022/08/09 10:38:31;;;;;;;1.50;1.40;;;27.50;33.10;;;;;;5072968;28;20446;-82
2022/08/09 10:41:19;;;;;;;3.17;1.80;;;27.60;31.70;;;;;;5063786;28;20466;-82
2022/08/09 10:43:49;;;;;;;1.80;1.70;;;27.60;32.90;;;;;;5069909;28;20469;-82
2022/08/09 10:46:49;;;;;;;1.27;1.27;;;27.60;30.70;;;;;;5072544;28;21166;-82
2022/08/09 10:49:37;;;;;;;2.00;1.40;;;27.70;31.20;;;;;;5065364;28;20531;-82
2022/08/09 10:52:34;;;;;;;1.83;1.73;;;27.70;30.00;;;;;;5083447;28;20976;-82
2022/08/09 10:55:23;;;;;;;2.07;1.70;;;27.70;29.40;;;;;;5063408;28;20553;-80
2022/08/09 10:57:53;;;;;;;1.50;1.40;;;27.70;29.90;;;;;;5063981;28;20436;-82
2022/08/09 11:00:38;;;;;;;1.40;1.30;;;27.80;32.50;;;;;;5067769;28;20451;-82
2022/08/09 11:03:26;;;;;;;1.53;1.30;;;27.90;33.30;;;;;;5064908;28;20446;-82
2022/08/09 11:06:24;;;;;;;2.20;1.53;;;27.90;48.20;;;;;;5065870;28;20494;-80
2022/08/09 11:08:52;;;;;;;1.27;1.20;;;27.90;31.50;;;;;;5067055;28;20495;-81
2022/08/09 11:12:06;;;;;;;1.50;1.40;;;27.90;32.40;;;;;;5065306;28;20509;-81
2022/08/09 11:14:36;;;;;;;1.30;1.10;;;27.90;31.10;;;;;;5069247;28;20452;-81
2022/08/09 11:17:51;;;;;;;1.90;1.30;;;27.90;31.40;;;;;;5073547;28;20457;-80
2022/08/09 11:20:41;;;;;;;1.40;1.30;;;27.90;30.90;;;;;;5064984;28;20550;-81
2022/08/09 11:23:12;;;;;;;2.80;2.60;;;27.90;31.00;;;;;;5100295;27;20451;-81
2022/08/09 11:25:49;;;;;;;10.10;4.63;;;27.90;28.90;;;;;;5066785;28;20459;-80
2022/08/09 11:28:38;;;;;;;5.80;4.97;;;27.90;29.30;;;;;;5062530;28;20467;-81
2022/08/09 11:31:49;;;;;;;6.93;6.23;;;27.90;30.40;;;;;;5064457;28;20514;-81
2022/08/09 11:34:41;;;;;;;4.73;4.33;;;27.90;30.70;;;;;;5063922;28;20450;-81
2022/08/09 11:37:25;;;;;;;3.10;2.90;;;27.90;29.90;;;;;;5068390;28;20531;-81
2022/08/09 11:40:02;;;;;;;2.57;2.47;;;28.00;29.50;;;;;;5068192;28;21450;-79
2022/08/09 11:42:56;;;;;;;2.93;2.73;;;28.00;34.10;;;;;;5069105;28;20443;-80
2022/08/09 11:45:28;;;;;;;3.07;2.73;;;27.90;29.20;;;;;;5051891;28;20484;-81
2022/08/09 11:48:18;;;;;;;2.13;1.97;;;28.00;28.90;;;;;;5071502;28;20443;-82
2022/08/09 11:51:03;;;;;;;2.13;2.03;;;28.00;30.20;;;;;;5100484;27;20839;-81
2022/08/09 11:54:12;;;;;;;2.03;1.57;;;28.00;28.80;;;;;;5067545;28;20451;-80
2022/08/09 11:57:15;;;;;;;1.67;1.50;;;28.10;28.40;;;;;;5064846;28;20466;-81
2022/08/09 11:59:55;;;;;;;1.50;1.40;;;28.10;28.90;;;;;;5070168;28;20965;-80
2022/08/09 12:02:25;;;;;;;1.80;1.60;;;28.10;31.60;;;;;;5065331;28;20468;-81
2022/08/09 12:05:07;;;;;;;1.53;1.43;;;28.20;31.80;;;;;;5067317;28;20465;-80
2022/08/09 12:07:45;;;;;;;1.60;1.50;;;28.20;29.90;;;;;;5063814;28;20457;-81
2022/08/09 12:10:13;;;;;;;3.20;1.63;;;28.20;29.20;;;;;;5064194;28;20961;-81
2022/08/09 12:13:01;;;;;;;1.57;1.47;;;28.20;31.80;;;;;;5067152;28;20469;-80
2022/08/09 12:15:50;;;;;;;1.50;1.40;;;28.30;31.80;;;;;;5062586;28;20486;-81
2022/08/09 12:18:21;;;;;;;1.30;1.20;;;28.30;29.40;;;;;;5066099;28;20454;-81
2022/08/09 12:20:58;;;;;;;1.50;1.40;;;28.30;31.40;;;;;;5066875;28;20498;-81
2022/08/09 12:23:30;;;;;;;1.40;1.30;;;28.30;30.20;;;;;;5064331;28;20485;-81
2022/08/09 12:26:19;;;;;;;1.37;1.27;;;28.20;30.80;;;;;;5064004;28;20486;-80
2022/08/09 12:28:55;;;;;;;1.37;1.27;;;28.30;30.50;;;;;;5065337;28;20977;-81
2022/08/09 12:31:44;;;;;;;1.27;1.20;;;28.30;29.60;;;;;;5063816;28;20485;-81
2022/08/09 12:34:36;;;;;;;1.53;1.30;;;28.30;30.40;;;;;;5075055;28;21250;-81
2022/08/09 12:37:05;;;;;;;1.47;1.17;;;28.30;29.50;;;;;;5062596;28;21087;-81
2022/08/09 12:40:06;;;;;;;2.90;1.20;;;28.30;28.50;;;;;;5066248;28;20474;-81
2022/08/09 12:42:35;;;;;;;1.20;1.00;;;28.40;28.70;;;;;;5063594;28;21149;-80
2022/08/09 12:45:05;;;;;;;1.20;1.10;;;28.40;30.00;;;;;;5064801;28;20962;-78
2022/08/09 12:47:54;;;;;;;1.03;1.03;;;28.40;29.20;;;;;;5064252;28;21041;-81
2022/08/09 12:50:23;;;;;;;1.03;1.03;;;28.40;30.30;;;;;;5064147;28;20447;-80
2022/08/09 12:52:52;;;;;;;1.40;1.13;;;28.40;29.10;;;;;;5066134;28;20952;-81
2022/08/09 12:55:37;;;;;;;1.17;1.10;;;28.40;29.00;;;;;;5062299;28;20455;-81
2022/08/09 12:58:25;;;;;;;0.83;0.83;;;28.40;26.20;;;;;;5071516;28;20491;-81
2022/08/09 13:00:56;;;;;;;1.33;1.00;;;28.40;28.20;;;;;;5062561;28;20489;-80
2022/08/09 13:03:28;;;;;;;1.07;1.00;;;28.40;26.80;;;;;;5061704;28;20500;-81
2022/08/09 13:06:27;;;;;;;1.23;0.80;;;28.50;28.80;;;;;;5070109;28;20450;-81
2022/08/09 13:09:13;;;;;;;1.07;0.97;;;28.50;27.80;;;;;;5070833;28;20975;-81
2022/08/09 13:11:44;;;;;;;1.20;1.10;;;28.50;28.40;;;;;;5066121;28;20870;-81
2022/08/09 13:14:14;;;;;;;1.17;1.10;;;28.50;29.10;;;;;;5068528;28;20461;-81
2022/08/09 13:17:05;;;;;;;1.10;1.03;;;28.50;28.30;;;;;;5068962;28;20650;-81
2022/08/09 13:19:40;;;;;;;1.10;1.00;;;28.40;28.20;;;;;;5068859;28;20508;-80
2022/08/09 13:22:30;;;;;;;1.10;1.10;;;28.40;28.60;;;;;;5067393;28;20470;-82
2022/08/09 13:25:18;;;;;;;1.30;1.20;;;28.50;30.40;;;;;;5069415;28;20864;-81
2022/08/09 13:27:46;;;;;;;1.10;1.10;;;28.50;29.90;;;;;;5071845;28;20463;-82
2022/08/09 13:30:24;;;;;;;1.20;1.10;;;28.50;29.20;;;;;;5066736;28;20453;-82
2022/08/09 13:33:22;;;;;;;1.20;1.10;;;28.60;29.10;;;;;;5068861;28;20727;-82
2022/08/09 13:35:50;;;;;;;1.50;1.20;;;28.60;29.60;;;;;;5070519;28;20462;-81
2022/08/09 13:38:40;;;;;;;1.30;1.20;;;28.60;32.20;;;;;;5073417;28;20520;-81
2022/08/09 13:41:25;;;;;;;1.20;1.10;;;28.70;30.10;;;;;;5071764;28;20510;-82
2022/08/09 13:44:14;;;;;;;1.20;1.00;;;28.60;31.60;;;;;;5072720;28;20443;-81
2022/08/09 13:46:45;;;;;;;1.10;1.10;;;28.60;30.60;;;;;;5070460;28;20477;-81
2022/08/09 13:49:34;;;;;;;1.10;1.10;;;28.70;29.80;;;;;;5069728;28;20451;-81
2022/08/09 13:52:22;;;;;;;1.13;1.10;;;28.70;30.60;;;;;;5067955;28;20555;-82